sensor_id;sensor_type;location;lat;lon;timestamp;P1;durP1;ratioP1;P2;durP2;ratioP2
42632;SDS011;28261;53.304;-6.284;2023-04-03T00:01:56;1.90;;;1.40;;
42632;SDS011;28261;53.304;-6.284;2023-04-03T00:04:00;3.33;;;1.35;;
42632;SDS011;28261;53.304;-6.284;2023-04-03T00:06:04;1.40;;;1.08;;
42632;SDS011;28261;53.304;-6.284;2023-04-03T00:08:12;2.60;;;1.65;;
42632;SDS011;28261;53.304;-6.284;2023-04-03T00:10:16;1.80;;;1.08;;
42632;SDS011;28261;53.304;-6.284;2023-04-03T00:12:20;2.65;;;1.13;;
42632;SDS011;28261;53.304;-6.284;2023-04-03T00:14:23;2.83;;;1.77;;
42632;SDS011;28261;53.304;-6.284;2023-04-03T00:16:27;2.25;;;1.23;;
42632;SDS011;28261;53.304;-6.284;2023-04-03T00:18:31;2.15;;;1.40;;
42632;SDS011;28261;53.304;-6.284;2023-04-03T00:20:35;4.03;;;1.40;;
42632;SDS011;28261;53.304;-6.284;2023-04-03T00:22:39;2.33;;;1.77;;
42632;SDS011;28261;53.304;-6.284;2023-04-03T00:24:45;3.55;;;2.10;;
42632;SDS011;28261;53.304;-6.284;2023-04-03T00:26:49;3.85;;;2.85;;
42632;SDS011;28261;53.304;-6.284;2023-04-03T00:28:53;1.65;;;1.55;;
42632;SDS011;28261;53.304;-6.284;2023-04-03T00:30:57;1.48;;;1.38;;
42632;SDS011;28261;53.304;-6.284;2023-04-03T00:33:02;4.13;;;1.40;;
42632;SDS011;28261;53.304;-6.284;2023-04-03T00:35:06;1.58;;;1.45;;
42632;SDS011;28261;53.304;-6.284;2023-04-03T00:37:10;1.70;;;1.40;;
42632;SDS011;28261;53.304;-6.284;2023-04-03T00:39:14;1.50;;;1.30;;
42632;SDS011;28261;53.304;-6.284;2023-04-03T00:41:20;5.72;;;1.70;;
42632;SDS011;28261;53.304;-6.284;2023-04-03T00:43:24;3.15;;;1.58;;
42632;SDS011;28261;53.304;-6.284;2023-04-03T00:45:30;5.43;;;1.63;;
42632;SDS011;28261;53.304;-6.284;2023-04-03T00:47:39;2.92;;;1.38;;
42632;SDS011;28261;53.304;-6.284;2023-04-03T00:49:45;3.05;;;1.55;;
42632;SDS011;28261;53.304;-6.284;2023-04-03T00:51:49;2.90;;;1.13;;
42632;SDS011;28261;53.304;-6.284;2023-04-03T00:53:54;3.03;;;1.55;;
42632;SDS011;28261;53.304;-6.284;2023-04-03T00:56:02;2.78;;;1.67;;
42632;SDS011;28261;53.304;-6.284;2023-04-03T00:58:12;2.97;;;2.05;;
42632;SDS011;28261;53.304;-6.284;2023-04-03T01:00:19;2.45;;;0.82;;
42632;SDS011;28261;53.304;-6.284;2023-04-03T01:02:24;2.17;;;1.30;;
42632;SDS011;28261;53.304;-6.284;2023-04-03T01:04:29;2.47;;;1.45;;
42632;SDS011;28261;53.304;-6.284;2023-04-03T01:06:34;1.58;;;1.33;;
42632;SDS011;28261;53.304;-6.284;2023-04-03T01:08:42;2.88;;;1.45;;
42632;SDS011;28261;53.304;-6.284;2023-04-03T01:10:48;2.75;;;1.42;;
42632;SDS011;28261;53.304;-6.284;2023-04-03T01:12:54;2.58;;;1.52;;
42632;SDS011;28261;53.304;-6.284;2023-04-03T01:15:00;3.42;;;2.17;;
42632;SDS011;28261;53.304;-6.284;2023-04-03T01:17:20;2.60;;;1.90;;
42632;SDS011;28261;53.304;-6.284;2023-04-03T01:19:30;3.83;;;1.92;;
42632;SDS011;28261;53.304;-6.284;2023-04-03T01:21:40;4.53;;;1.70;;
42632;SDS011;28261;53.304;-6.284;2023-04-03T01:24:06;2.50;;;1.88;;
42632;SDS011;28261;53.304;-6.284;2023-04-03T01:26:21;3.78;;;1.40;;
42632;SDS011;28261;53.304;-6.284;2023-04-03T01:28:25;2.72;;;1.55;;
42632;SDS011;28261;53.304;-6.284;2023-04-03T01:30:34;4.22;;;1.50;;
42632;SDS011;28261;53.304;-6.284;2023-04-03T01:34:48;2.40;;;1.70;;
42632;SDS011;28261;53.304;-6.284;2023-04-03T01:36:52;2.20;;;1.73;;
42632;SDS011;28261;53.304;-6.284;2023-04-03T01:38:56;2.97;;;1.50;;
42632;SDS011;28261;53.304;-6.284;2023-04-03T01:41:03;3.03;;;1.77;;
42632;SDS011;28261;53.304;-6.284;2023-04-03T01:43:07;3.42;;;1.25;;
42632;SDS011;28261;53.304;-6.284;2023-04-03T01:45:11;2.25;;;1.60;;
42632;SDS011;28261;53.304;-6.284;2023-04-03T01:47:15;3.88;;;1.58;;
42632;SDS011;28261;53.304;-6.284;2023-04-03T01:49:20;1.73;;;1.23;;
42632;SDS011;28261;53.304;-6.284;2023-04-03T01:51:25;2.67;;;1.30;;
42632;SDS011;28261;53.304;-6.284;2023-04-03T01:53:29;2.90;;;1.50;;
42632;SDS011;28261;53.304;-6.284;2023-04-03T01:55:33;3.80;;;2.25;;
42632;SDS011;28261;53.304;-6.284;2023-04-03T01:57:36;1.98;;;1.60;;
42632;SDS011;28261;53.304;-6.284;2023-04-03T01:59:40;2.15;;;1.55;;
42632;SDS011;28261;53.304;-6.284;2023-04-03T02:01:44;2.30;;;1.65;;
42632;SDS011;28261;53.304;-6.284;2023-04-03T02:03:48;2.30;;;1.73;;
42632;SDS011;28261;53.304;-6.284;2023-04-03T02:05:53;2.67;;;1.58;;
42632;SDS011;28261;53.304;-6.284;2023-04-03T02:07:57;2.85;;;1.70;;
42632;SDS011;28261;53.304;-6.284;2023-04-03T02:10:03;1.80;;;1.30;;
42632;SDS011;28261;53.304;-6.284;2023-04-03T02:12:07;3.30;;;1.65;;
42632;SDS011;28261;53.304;-6.284;2023-04-03T02:14:11;1.95;;;1.80;;
42632;SDS011;28261;53.304;-6.284;2023-04-03T02:16:15;2.20;;;1.55;;
42632;SDS011;28261;53.304;-6.284;2023-04-03T02:18:19;2.97;;;1.67;;
42632;SDS011;28261;53.304;-6.284;2023-04-03T02:20:23;2.97;;;1.88;;
42632;SDS011;28261;53.304;-6.284;2023-04-03T02:22:28;3.17;;;1.85;;
42632;SDS011;28261;53.304;-6.284;2023-04-03T02:24:32;4.55;;;2.20;;
42632;SDS011;28261;53.304;-6.284;2023-04-03T02:26:35;3.15;;;2.17;;
42632;SDS011;28261;53.304;-6.284;2023-04-03T02:28:39;4.07;;;1.80;;
42632;SDS011;28261;53.304;-6.284;2023-04-03T02:30:43;3.42;;;1.90;;
42632;SDS011;28261;53.304;-6.284;2023-04-03T02:32:46;6.00;;;2.42;;
42632;SDS011;28261;53.304;-6.284;2023-04-03T02:34:50;3.45;;;1.60;;
42632;SDS011;28261;53.304;-6.284;2023-04-03T02:36:54;3.53;;;2.65;;
42632;SDS011;28261;53.304;-6.284;2023-04-03T02:39:00;3.35;;;2.13;;
42632;SDS011;28261;53.304;-6.284;2023-04-03T02:41:05;4.07;;;2.47;;
42632;SDS011;28261;53.304;-6.284;2023-04-03T02:43:11;3.38;;;2.13;;
42632;SDS011;28261;53.304;-6.284;2023-04-03T02:45:15;3.05;;;2.00;;
42632;SDS011;28261;53.304;-6.284;2023-04-03T02:47:19;6.07;;;2.33;;
42632;SDS011;28261;53.304;-6.284;2023-04-03T02:49:22;4.32;;;2.45;;
42632;SDS011;28261;53.304;-6.284;2023-04-03T02:51:26;3.35;;;2.40;;
42632;SDS011;28261;53.304;-6.284;2023-04-03T02:53:31;3.72;;;2.30;;
42632;SDS011;28261;53.304;-6.284;2023-04-03T02:55:43;2.97;;;1.95;;
42632;SDS011;28261;53.304;-6.284;2023-04-03T02:57:47;2.15;;;1.95;;
42632;SDS011;28261;53.304;-6.284;2023-04-03T02:59:51;4.40;;;2.50;;
42632;SDS011;28261;53.304;-6.284;2023-04-03T03:01:55;5.20;;;2.50;;
42632;SDS011;28261;53.304;-6.284;2023-04-03T03:03:59;3.50;;;2.60;;
42632;SDS011;28261;53.304;-6.284;2023-04-03T03:06:04;5.78;;;2.78;;
42632;SDS011;28261;53.304;-6.284;2023-04-03T03:08:08;2.45;;;2.08;;
42632;SDS011;28261;53.304;-6.284;2023-04-03T03:10:12;3.88;;;2.70;;
42632;SDS011;28261;53.304;-6.284;2023-04-03T03:12:18;3.40;;;2.70;;
42632;SDS011;28261;53.304;-6.284;2023-04-03T03:14:24;6.75;;;3.40;;
42632;SDS011;28261;53.304;-6.284;2023-04-03T03:16:27;5.10;;;2.95;;
42632;SDS011;28261;53.304;-6.284;2023-04-03T03:18:31;4.65;;;2.63;;
42632;SDS011;28261;53.304;-6.284;2023-04-03T03:20:35;4.35;;;2.33;;
42632;SDS011;28261;53.304;-6.284;2023-04-03T03:22:39;4.32;;;2.58;;
42632;SDS011;28261;53.304;-6.284;2023-04-03T03:24:43;5.10;;;2.72;;
42632;SDS011;28261;53.304;-6.284;2023-04-03T03:26:47;6.00;;;2.15;;
42632;SDS011;28261;53.304;-6.284;2023-04-03T03:28:52;5.57;;;2.70;;
42632;SDS011;28261;53.304;-6.284;2023-04-03T03:30:56;3.92;;;2.75;;
42632;SDS011;28261;53.304;-6.284;2023-04-03T03:33:00;5.70;;;2.53;;
42632;SDS011;28261;53.304;-6.284;2023-04-03T03:35:04;5.78;;;2.47;;
42632;SDS011;28261;53.304;-6.284;2023-04-03T03:37:08;6.65;;;3.20;;
42632;SDS011;28261;53.304;-6.284;2023-04-03T03:39:12;5.75;;;3.30;;
42632;SDS011;28261;53.304;-6.284;2023-04-03T03:41:16;3.90;;;2.55;;
42632;SDS011;28261;53.304;-6.284;2023-04-03T03:43:20;4.20;;;2.65;;
42632;SDS011;28261;53.304;-6.284;2023-04-03T03:47:31;6.68;;;3.08;;
42632;SDS011;28261;53.304;-6.284;2023-04-03T03:49:35;9.45;;;3.33;;
42632;SDS011;28261;53.304;-6.284;2023-04-03T03:51:39;3.90;;;2.60;;
42632;SDS011;28261;53.304;-6.284;2023-04-03T03:53:43;6.03;;;3.33;;
42632;SDS011;28261;53.304;-6.284;2023-04-03T03:55:50;6.85;;;3.90;;
42632;SDS011;28261;53.304;-6.284;2023-04-03T03:57:57;5.43;;;3.65;;
42632;SDS011;28261;53.304;-6.284;2023-04-03T04:00:04;5.75;;;3.88;;
42632;SDS011;28261;53.304;-6.284;2023-04-03T04:02:17;7.97;;;3.60;;
42632;SDS011;28261;53.304;-6.284;2023-04-03T04:04:21;7.22;;;3.97;;
42632;SDS011;28261;53.304;-6.284;2023-04-03T04:06:25;7.00;;;3.67;;
42632;SDS011;28261;53.304;-6.284;2023-04-03T04:08:32;8.27;;;4.10;;
42632;SDS011;28261;53.304;-6.284;2023-04-03T04:10:38;9.80;;;4.35;;
42632;SDS011;28261;53.304;-6.284;2023-04-03T04:12:43;6.75;;;4.00;;
42632;SDS011;28261;53.304;-6.284;2023-04-03T04:14:48;7.57;;;3.53;;
42632;SDS011;28261;53.304;-6.284;2023-04-03T04:16:51;8.52;;;4.50;;
42632;SDS011;28261;53.304;-6.284;2023-04-03T04:19:00;7.13;;;3.97;;
42632;SDS011;28261;53.304;-6.284;2023-04-03T04:21:08;9.73;;;3.90;;
42632;SDS011;28261;53.304;-6.284;2023-04-03T04:23:13;5.63;;;3.45;;
42632;SDS011;28261;53.304;-6.284;2023-04-03T04:25:17;7.53;;;3.70;;
42632;SDS011;28261;53.304;-6.284;2023-04-03T04:27:21;6.97;;;3.78;;
42632;SDS011;28261;53.304;-6.284;2023-04-03T04:29:25;9.10;;;3.55;;
42632;SDS011;28261;53.304;-6.284;2023-04-03T04:31:29;8.90;;;4.78;;
42632;SDS011;28261;53.304;-6.284;2023-04-03T04:33:33;6.78;;;4.15;;
42632;SDS011;28261;53.304;-6.284;2023-04-03T04:35:41;7.90;;;3.90;;
42632;SDS011;28261;53.304;-6.284;2023-04-03T04:37:46;10.90;;;3.67;;
42632;SDS011;28261;53.304;-6.284;2023-04-03T04:39:50;7.75;;;4.30;;
42632;SDS011;28261;53.304;-6.284;2023-04-03T04:41:54;6.85;;;4.28;;
42632;SDS011;28261;53.304;-6.284;2023-04-03T04:44:01;5.35;;;3.78;;
42632;SDS011;28261;53.304;-6.284;2023-04-03T04:46:06;6.07;;;3.60;;
42632;SDS011;28261;53.304;-6.284;2023-04-03T04:48:18;5.32;;;3.10;;
42632;SDS011;28261;53.304;-6.284;2023-04-03T04:50:22;9.43;;;4.38;;
42632;SDS011;28261;53.304;-6.284;2023-04-03T04:52:28;6.85;;;3.75;;
42632;SDS011;28261;53.304;-6.284;2023-04-03T04:54:32;4.82;;;3.33;;
42632;SDS011;28261;53.304;-6.284;2023-04-03T04:56:36;4.97;;;2.97;;
42632;SDS011;28261;53.304;-6.284;2023-04-03T04:58:40;6.15;;;3.47;;
42632;SDS011;28261;53.304;-6.284;2023-04-03T05:00:43;5.03;;;3.40;;
42632;SDS011;28261;53.304;-6.284;2023-04-03T05:02:46;9.18;;;3.50;;
42632;SDS011;28261;53.304;-6.284;2023-04-03T05:04:52;9.32;;;4.03;;
42632;SDS011;28261;53.304;-6.284;2023-04-03T05:07:01;6.07;;;3.78;;
42632;SDS011;28261;53.304;-6.284;2023-04-03T05:09:09;5.15;;;3.35;;
42632;SDS011;28261;53.304;-6.284;2023-04-03T05:11:13;5.78;;;3.80;;
42632;SDS011;28261;53.304;-6.284;2023-04-03T05:13:18;7.20;;;3.80;;
42632;SDS011;28261;53.304;-6.284;2023-04-03T05:15:22;6.28;;;3.85;;
42632;SDS011;28261;53.304;-6.284;2023-04-03T05:17:25;5.65;;;3.67;;
42632;SDS011;28261;53.304;-6.284;2023-04-03T05:19:30;6.35;;;3.20;;
42632;SDS011;28261;53.304;-6.284;2023-04-03T05:21:36;5.40;;;3.10;;
42632;SDS011;28261;53.304;-6.284;2023-04-03T05:23:44;6.75;;;3.40;;
42632;SDS011;28261;53.304;-6.284;2023-04-03T05:25:49;5.03;;;2.95;;
42632;SDS011;28261;53.304;-6.284;2023-04-03T05:27:54;4.47;;;3.42;;
42632;SDS011;28261;53.304;-6.284;2023-04-03T05:29:58;5.65;;;3.50;;
42632;SDS011;28261;53.304;-6.284;2023-04-03T05:32:03;5.43;;;4.10;;
42632;SDS011;28261;53.304;-6.284;2023-04-03T05:34:07;7.03;;;3.20;;
42632;SDS011;28261;53.304;-6.284;2023-04-03T05:36:12;9.32;;;4.35;;
42632;SDS011;28261;53.304;-6.284;2023-04-03T05:38:19;7.22;;;3.92;;
42632;SDS011;28261;53.304;-6.284;2023-04-03T05:40:23;6.40;;;3.05;;
42632;SDS011;28261;53.304;-6.284;2023-04-03T05:42:31;5.47;;;3.67;;
42632;SDS011;28261;53.304;-6.284;2023-04-03T05:44:35;6.93;;;3.78;;
42632;SDS011;28261;53.304;-6.284;2023-04-03T05:46:38;9.00;;;4.30;;
42632;SDS011;28261;53.304;-6.284;2023-04-03T05:48:43;12.77;;;4.25;;
42632;SDS011;28261;53.304;-6.284;2023-04-03T05:50:51;8.95;;;4.15;;
42632;SDS011;28261;53.304;-6.284;2023-04-03T05:52:59;9.30;;;4.75;;
42632;SDS011;28261;53.304;-6.284;2023-04-03T05:55:07;7.97;;;4.30;;
42632;SDS011;28261;53.304;-6.284;2023-04-03T05:57:12;15.15;;;5.07;;
42632;SDS011;28261;53.304;-6.284;2023-04-03T05:59:18;8.15;;;4.35;;
42632;SDS011;28261;53.304;-6.284;2023-04-03T06:01:24;10.07;;;4.72;;
42632;SDS011;28261;53.304;-6.284;2023-04-03T06:03:28;11.30;;;5.03;;
42632;SDS011;28261;53.304;-6.284;2023-04-03T06:05:38;10.80;;;5.53;;
42632;SDS011;28261;53.304;-6.284;2023-04-03T06:07:45;7.38;;;4.60;;
42632;SDS011;28261;53.304;-6.284;2023-04-03T06:09:51;11.02;;;5.35;;
42632;SDS011;28261;53.304;-6.284;2023-04-03T06:11:56;11.43;;;4.90;;
42632;SDS011;28261;53.304;-6.284;2023-04-03T06:14:03;10.25;;;5.70;;
42632;SDS011;28261;53.304;-6.284;2023-04-03T06:16:09;8.93;;;4.97;;
42632;SDS011;28261;53.304;-6.284;2023-04-03T06:18:17;9.93;;;4.90;;
42632;SDS011;28261;53.304;-6.284;2023-04-03T06:20:21;15.55;;;6.40;;
42632;SDS011;28261;53.304;-6.284;2023-04-03T06:22:27;12.98;;;5.78;;
42632;SDS011;28261;53.304;-6.284;2023-04-03T06:24:32;8.63;;;5.00;;
42632;SDS011;28261;53.304;-6.284;2023-04-03T06:26:37;9.70;;;5.03;;
42632;SDS011;28261;53.304;-6.284;2023-04-03T06:28:41;10.38;;;5.93;;
42632;SDS011;28261;53.304;-6.284;2023-04-03T06:30:45;11.18;;;5.80;;
42632;SDS011;28261;53.304;-6.284;2023-04-03T06:32:51;10.82;;;6.10;;
42632;SDS011;28261;53.304;-6.284;2023-04-03T06:34:55;14.18;;;5.93;;
42632;SDS011;28261;53.304;-6.284;2023-04-03T06:37:00;11.48;;;5.72;;
42632;SDS011;28261;53.304;-6.284;2023-04-03T06:39:04;14.18;;;6.38;;
42632;SDS011;28261;53.304;-6.284;2023-04-03T06:41:09;10.40;;;5.70;;
42632;SDS011;28261;53.304;-6.284;2023-04-03T06:43:13;11.48;;;5.88;;
42632;SDS011;28261;53.304;-6.284;2023-04-03T06:45:17;12.75;;;5.65;;
42632;SDS011;28261;53.304;-6.284;2023-04-03T06:47:22;7.75;;;4.97;;
42632;SDS011;28261;53.304;-6.284;2023-04-03T06:49:27;16.65;;;5.78;;
42632;SDS011;28261;53.304;-6.284;2023-04-03T06:51:31;13.35;;;5.35;;
42632;SDS011;28261;53.304;-6.284;2023-04-03T06:53:35;11.07;;;5.68;;
42632;SDS011;28261;53.304;-6.284;2023-04-03T06:55:39;11.48;;;5.63;;
42632;SDS011;28261;53.304;-6.284;2023-04-03T06:57:44;11.73;;;4.68;;
42632;SDS011;28261;53.304;-6.284;2023-04-03T06:59:48;8.82;;;4.47;;
42632;SDS011;28261;53.304;-6.284;2023-04-03T07:01:52;13.07;;;5.63;;
42632;SDS011;28261;53.304;-6.284;2023-04-03T07:03:56;9.68;;;5.65;;
42632;SDS011;28261;53.304;-6.284;2023-04-03T07:06:02;12.13;;;4.82;;
42632;SDS011;28261;53.304;-6.284;2023-04-03T07:08:06;16.23;;;4.88;;
42632;SDS011;28261;53.304;-6.284;2023-04-03T07:10:10;9.60;;;4.93;;
42632;SDS011;28261;53.304;-6.284;2023-04-03T07:12:14;13.52;;;4.60;;
42632;SDS011;28261;53.304;-6.284;2023-04-03T07:14:18;10.93;;;4.25;;
42632;SDS011;28261;53.304;-6.284;2023-04-03T07:16:23;9.80;;;4.05;;
42632;SDS011;28261;53.304;-6.284;2023-04-03T07:18:26;10.27;;;4.60;;
42632;SDS011;28261;53.304;-6.284;2023-04-03T07:20:30;7.43;;;4.50;;
42632;SDS011;28261;53.304;-6.284;2023-04-03T07:22:36;11.02;;;4.95;;
42632;SDS011;28261;53.304;-6.284;2023-04-03T07:24:39;11.25;;;4.38;;
42632;SDS011;28261;53.304;-6.284;2023-04-03T07:26:43;15.55;;;6.10;;
42632;SDS011;28261;53.304;-6.284;2023-04-03T07:28:47;12.55;;;5.75;;
42632;SDS011;28261;53.304;-6.284;2023-04-03T07:30:52;14.13;;;5.13;;
42632;SDS011;28261;53.304;-6.284;2023-04-03T07:32:58;10.43;;;5.22;;
42632;SDS011;28261;53.304;-6.284;2023-04-03T07:35:02;10.68;;;5.00;;
42632;SDS011;28261;53.304;-6.284;2023-04-03T07:37:06;32.15;;;6.20;;
42632;SDS011;28261;53.304;-6.284;2023-04-03T07:39:12;17.48;;;5.68;;
42632;SDS011;28261;53.304;-6.284;2023-04-03T07:43:20;21.25;;;5.80;;
42632;SDS011;28261;53.304;-6.284;2023-04-03T07:45:26;5.45;;;3.90;;
42632;SDS011;28261;53.304;-6.284;2023-04-03T07:47:30;8.65;;;4.82;;
42632;SDS011;28261;53.304;-6.284;2023-04-03T07:49:34;10.60;;;4.53;;
42632;SDS011;28261;53.304;-6.284;2023-04-03T07:51:39;9.98;;;4.53;;
42632;SDS011;28261;53.304;-6.284;2023-04-03T07:53:43;11.35;;;5.40;;
42632;SDS011;28261;53.304;-6.284;2023-04-03T07:55:49;16.25;;;5.07;;
42632;SDS011;28261;53.304;-6.284;2023-04-03T07:57:57;12.02;;;4.35;;
42632;SDS011;28261;53.304;-6.284;2023-04-03T08:00:00;11.70;;;4.15;;
42632;SDS011;28261;53.304;-6.284;2023-04-03T08:02:12;11.70;;;4.55;;
42632;SDS011;28261;53.304;-6.284;2023-04-03T08:04:16;11.48;;;4.45;;
42632;SDS011;28261;53.304;-6.284;2023-04-03T08:06:20;12.32;;;5.05;;
42632;SDS011;28261;53.304;-6.284;2023-04-03T08:08:43;10.10;;;4.10;;
42632;SDS011;28261;53.304;-6.284;2023-04-03T08:10:49;11.98;;;4.97;;
42632;SDS011;28261;53.304;-6.284;2023-04-03T08:12:53;11.45;;;5.00;;
42632;SDS011;28261;53.304;-6.284;2023-04-03T08:14:57;9.77;;;4.30;;
42632;SDS011;28261;53.304;-6.284;2023-04-03T08:17:03;11.75;;;4.07;;
42632;SDS011;28261;53.304;-6.284;2023-04-03T08:19:07;12.63;;;4.05;;
42632;SDS011;28261;53.304;-6.284;2023-04-03T08:21:25;6.85;;;3.95;;
42632;SDS011;28261;53.304;-6.284;2023-04-03T08:23:29;8.48;;;4.85;;
42632;SDS011;28261;53.304;-6.284;2023-04-03T08:25:32;14.75;;;4.78;;
42632;SDS011;28261;53.304;-6.284;2023-04-03T08:27:38;12.88;;;4.90;;
42632;SDS011;28261;53.304;-6.284;2023-04-03T08:29:42;11.73;;;5.75;;
42632;SDS011;28261;53.304;-6.284;2023-04-03T08:31:46;13.80;;;5.55;;
42632;SDS011;28261;53.304;-6.284;2023-04-03T08:35:54;12.20;;;5.07;;
42632;SDS011;28261;53.304;-6.284;2023-04-03T08:37:58;10.32;;;5.32;;
42632;SDS011;28261;53.304;-6.284;2023-04-03T08:40:02;11.13;;;4.70;;
42632;SDS011;28261;53.304;-6.284;2023-04-03T08:42:11;12.50;;;4.80;;
42632;SDS011;28261;53.304;-6.284;2023-04-03T08:44:23;16.20;;;5.13;;
42632;SDS011;28261;53.304;-6.284;2023-04-03T08:46:32;12.90;;;4.80;;
42632;SDS011;28261;53.304;-6.284;2023-04-03T08:48:43;11.55;;;3.95;;
42632;SDS011;28261;53.304;-6.284;2023-04-03T08:50:49;9.80;;;4.75;;
42632;SDS011;28261;53.304;-6.284;2023-04-03T08:52:56;8.30;;;5.13;;
42632;SDS011;28261;53.304;-6.284;2023-04-03T08:55:02;12.43;;;5.07;;
42632;SDS011;28261;53.304;-6.284;2023-04-03T08:57:09;11.52;;;5.00;;
42632;SDS011;28261;53.304;-6.284;2023-04-03T08:59:16;9.88;;;4.55;;
42632;SDS011;28261;53.304;-6.284;2023-04-03T09:01:30;11.00;;;5.38;;
42632;SDS011;28261;53.304;-6.284;2023-04-03T09:03:38;7.90;;;4.50;;
42632;SDS011;28261;53.304;-6.284;2023-04-03T09:05:45;7.10;;;4.28;;
42632;SDS011;28261;53.304;-6.284;2023-04-03T09:07:55;14.02;;;5.45;;
42632;SDS011;28261;53.304;-6.284;2023-04-03T09:10:03;9.15;;;4.82;;
42632;SDS011;28261;53.304;-6.284;2023-04-03T09:12:12;10.32;;;4.32;;
42632;SDS011;28261;53.304;-6.284;2023-04-03T09:14:23;10.18;;;4.55;;
42632;SDS011;28261;53.304;-6.284;2023-04-03T09:16:39;13.07;;;4.22;;
42632;SDS011;28261;53.304;-6.284;2023-04-03T09:18:53;7.75;;;4.30;;
42632;SDS011;28261;53.304;-6.284;2023-04-03T09:21:07;10.15;;;4.07;;
42632;SDS011;28261;53.304;-6.284;2023-04-03T09:23:21;11.88;;;4.20;;
42632;SDS011;28261;53.304;-6.284;2023-04-03T09:25:31;9.50;;;4.55;;
42632;SDS011;28261;53.304;-6.284;2023-04-03T09:27:38;6.95;;;4.07;;
42632;SDS011;28261;53.304;-6.284;2023-04-03T09:29:43;9.85;;;4.70;;
42632;SDS011;28261;53.304;-6.284;2023-04-03T09:31:58;13.35;;;8.05;;
42632;SDS011;28261;53.304;-6.284;2023-04-03T09:34:05;9.25;;;4.03;;
42632;SDS011;28261;53.304;-6.284;2023-04-03T09:36:13;10.25;;;4.90;;
42632;SDS011;28261;53.304;-6.284;2023-04-03T09:38:19;9.95;;;4.45;;
42632;SDS011;28261;53.304;-6.284;2023-04-03T09:40:30;7.70;;;4.30;;
42632;SDS011;28261;53.304;-6.284;2023-04-03T09:42:41;9.25;;;4.10;;
42632;SDS011;28261;53.304;-6.284;2023-04-03T09:44:53;12.27;;;5.15;;
42632;SDS011;28261;53.304;-6.284;2023-04-03T09:47:00;10.27;;;3.97;;
42632;SDS011;28261;53.304;-6.284;2023-04-03T09:49:21;19.33;;;4.63;;
42632;SDS011;28261;53.304;-6.284;2023-04-03T09:51:26;6.85;;;4.07;;
42632;SDS011;28261;53.304;-6.284;2023-04-03T09:53:35;10.38;;;4.57;;
42632;SDS011;28261;53.304;-6.284;2023-04-03T09:55:41;10.02;;;4.05;;
42632;SDS011;28261;53.304;-6.284;2023-04-03T09:57:47;12.63;;;6.47;;
42632;SDS011;28261;53.304;-6.284;2023-04-03T09:59:57;15.18;;;5.85;;
42632;SDS011;28261;53.304;-6.284;2023-04-03T10:02:20;8.23;;;4.05;;
42632;SDS011;28261;53.304;-6.284;2023-04-03T10:04:37;12.98;;;5.00;;
42632;SDS011;28261;53.304;-6.284;2023-04-03T10:06:43;7.70;;;4.30;;
42632;SDS011;28261;53.304;-6.284;2023-04-03T10:08:58;10.55;;;4.82;;
42632;SDS011;28261;53.304;-6.284;2023-04-03T10:11:10;9.88;;;4.38;;
42632;SDS011;28261;53.304;-6.284;2023-04-03T10:13:17;14.15;;;5.53;;
42632;SDS011;28261;53.304;-6.284;2023-04-03T10:15:23;10.27;;;4.43;;
42632;SDS011;28261;53.304;-6.284;2023-04-03T10:17:38;10.90;;;4.93;;
42632;SDS011;28261;53.304;-6.284;2023-04-03T10:19:53;9.98;;;5.05;;
42632;SDS011;28261;53.304;-6.284;2023-04-03T10:22:06;9.48;;;4.10;;
42632;SDS011;28261;53.304;-6.284;2023-04-03T10:24:23;10.02;;;4.28;;
42632;SDS011;28261;53.304;-6.284;2023-04-03T10:26:32;8.23;;;4.90;;
42632;SDS011;28261;53.304;-6.284;2023-04-03T10:28:45;8.55;;;4.93;;
42632;SDS011;28261;53.304;-6.284;2023-04-03T10:30:58;11.13;;;4.53;;
42632;SDS011;28261;53.304;-6.284;2023-04-03T10:33:20;22.70;;;10.98;;
42632;SDS011;28261;53.304;-6.284;2023-04-03T10:35:42;17.73;;;4.85;;
42632;SDS011;28261;53.304;-6.284;2023-04-03T10:37:56;10.48;;;4.68;;
42632;SDS011;28261;53.304;-6.284;2023-04-03T10:40:12;10.25;;;4.50;;
42632;SDS011;28261;53.304;-6.284;2023-04-03T10:42:27;13.38;;;4.35;;
42632;SDS011;28261;53.304;-6.284;2023-04-03T10:44:40;15.20;;;5.15;;
42632;SDS011;28261;53.304;-6.284;2023-04-03T10:46:56;13.18;;;4.65;;
42632;SDS011;28261;53.304;-6.284;2023-04-03T10:49:19;15.93;;;4.10;;
42632;SDS011;28261;53.304;-6.284;2023-04-03T10:51:33;10.93;;;4.47;;
42632;SDS011;28261;53.304;-6.284;2023-04-03T10:53:47;16.45;;;5.63;;
42632;SDS011;28261;53.304;-6.284;2023-04-03T10:56:01;10.48;;;4.95;;
42632;SDS011;28261;53.304;-6.284;2023-04-03T10:58:10;13.70;;;4.32;;
42632;SDS011;28261;53.304;-6.284;2023-04-03T11:00:35;12.65;;;5.35;;
42632;SDS011;28261;53.304;-6.284;2023-04-03T11:02:45;9.93;;;4.50;;
42632;SDS011;28261;53.304;-6.284;2023-04-03T11:04:57;11.35;;;4.22;;
42632;SDS011;28261;53.304;-6.284;2023-04-03T11:07:07;7.28;;;4.70;;
42632;SDS011;28261;53.304;-6.284;2023-04-03T11:09:21;10.13;;;4.00;;
42632;SDS011;28261;53.304;-6.284;2023-04-03T11:11:29;9.15;;;3.42;;
42632;SDS011;28261;53.304;-6.284;2023-04-03T11:13:38;11.52;;;4.50;;
42632;SDS011;28261;53.304;-6.284;2023-04-03T11:15:47;10.68;;;3.97;;
42632;SDS011;28261;53.304;-6.284;2023-04-03T11:17:53;11.68;;;4.00;;
42632;SDS011;28261;53.304;-6.284;2023-04-03T11:20:06;15.05;;;4.70;;
42632;SDS011;28261;53.304;-6.284;2023-04-03T11:22:21;9.63;;;4.68;;
42632;SDS011;28261;53.304;-6.284;2023-04-03T11:24:29;14.32;;;4.95;;
42632;SDS011;28261;53.304;-6.284;2023-04-03T11:26:36;14.43;;;4.97;;
42632;SDS011;28261;53.304;-6.284;2023-04-03T11:28:43;6.15;;;3.90;;
42632;SDS011;28261;53.304;-6.284;2023-04-03T11:30:48;11.27;;;4.15;;
42632;SDS011;28261;53.304;-6.284;2023-04-03T11:33:09;9.85;;;4.38;;
42632;SDS011;28261;53.304;-6.284;2023-04-03T11:35:26;9.70;;;4.53;;
42632;SDS011;28261;53.304;-6.284;2023-04-03T11:37:31;12.55;;;5.13;;
42632;SDS011;28261;53.304;-6.284;2023-04-03T11:39:39;15.15;;;4.32;;
42632;SDS011;28261;53.304;-6.284;2023-04-03T11:41:51;10.55;;;4.20;;
42632;SDS011;28261;53.304;-6.284;2023-04-03T11:44:28;11.13;;;4.40;;
42632;SDS011;28261;53.304;-6.284;2023-04-03T11:46:51;9.48;;;4.28;;
42632;SDS011;28261;53.304;-6.284;2023-04-03T11:48:58;15.13;;;4.20;;
42632;SDS011;28261;53.304;-6.284;2023-04-03T11:51:04;9.75;;;4.30;;
42632;SDS011;28261;53.304;-6.284;2023-04-03T11:53:43;10.65;;;3.95;;
42632;SDS011;28261;53.304;-6.284;2023-04-03T11:58:35;11.25;;;4.35;;
42632;SDS011;28261;53.304;-6.284;2023-04-03T12:00:50;12.80;;;4.45;;
42632;SDS011;28261;53.304;-6.284;2023-04-03T12:02:57;14.95;;;4.35;;
42632;SDS011;28261;53.304;-6.284;2023-04-03T12:05:24;9.63;;;4.43;;
42632;SDS011;28261;53.304;-6.284;2023-04-03T12:07:31;7.07;;;4.22;;
42632;SDS011;28261;53.304;-6.284;2023-04-03T12:14:27;13.15;;;4.55;;
42632;SDS011;28261;53.304;-6.284;2023-04-03T12:20:58;8.80;;;4.18;;
42632;SDS011;28261;53.304;-6.284;2023-04-03T12:23:23;9.95;;;4.22;;
42632;SDS011;28261;53.304;-6.284;2023-04-03T12:25:41;13.80;;;4.53;;
42632;SDS011;28261;53.304;-6.284;2023-04-03T12:27:52;12.82;;;4.43;;
42632;SDS011;28261;53.304;-6.284;2023-04-03T12:29:59;11.85;;;4.55;;
42632;SDS011;28261;53.304;-6.284;2023-04-03T12:32:10;8.63;;;3.85;;
42632;SDS011;28261;53.304;-6.284;2023-04-03T12:34:29;11.15;;;4.25;;
42632;SDS011;28261;53.304;-6.284;2023-04-03T12:36:50;8.88;;;4.13;;
42632;SDS011;28261;53.304;-6.284;2023-04-03T12:39:14;11.10;;;4.85;;
42632;SDS011;28261;53.304;-6.284;2023-04-03T12:41:30;8.65;;;4.60;;
42632;SDS011;28261;53.304;-6.284;2023-04-03T12:43:47;11.85;;;4.15;;
42632;SDS011;28261;53.304;-6.284;2023-04-03T12:46:03;7.28;;;3.83;;
42632;SDS011;28261;53.304;-6.284;2023-04-03T12:48:11;10.45;;;4.47;;
42632;SDS011;28261;53.304;-6.284;2023-04-03T12:50:22;14.50;;;3.95;;
42632;SDS011;28261;53.304;-6.284;2023-04-03T12:52:30;9.27;;;2.97;;
42632;SDS011;28261;53.304;-6.284;2023-04-03T12:54:40;13.68;;;4.10;;